WJA187 CYYC-CYLW
Flight info
| Callsign | WJA187 |
|---|---|
| Flight time | 0h 48m |
| Altitude | 34000 |
| Route | BOTAG Q894 BINVO DCT ROBTI DCT NORIP NORIP5 |
| Aircraft | B736/M-SDE2E3FGHIRWXY/LB1 |
Departure
| Time | 2026-05-03 22:57 |
|---|---|
| Airport | Calgary International Airport (CYYC) |
Arrival
| Time | 2026-05-03 23:46 |
|---|---|
| Airport | Kelowna International Airport (CYLW) |
| Time | Latitude | Longitude | Altitude | Speed | Heading |
|---|---|---|---|---|---|
| 2026-05-03 22:03 | 51.13250 | -114.01559 | 3546 ft | 0 kts | 56° |
| 2026-05-03 22:42 | 51.13243 | -114.01575 | 3546 ft | 2 kts | 55° |
| 2026-05-03 22:42 | 51.13234 | -114.01594 | 3546 ft | 2 kts | 56° |
| 2026-05-03 22:42 | 51.13226 | -114.01614 | 3546 ft | 2 kts | 56° |
| 2026-05-03 22:43 | 51.13217 | -114.01633 | 3546 ft | 2 kts | 64° |
| 2026-05-03 22:43 | 51.13214 | -114.01657 | 3546 ft | 2 kts | 89° |
| 2026-05-03 22:43 | 51.13216 | -114.01681 | 3546 ft | 2 kts | 111° |
| 2026-05-03 22:43 | 51.13224 | -114.01701 | 3546 ft | 2 kts | 134° |
| 2026-05-03 22:44 | 51.13236 | -114.01716 | 3546 ft | 2 kts | 156° |
| 2026-05-03 22:44 | 51.13250 | -114.01722 | 3545 ft | 1 kts | 177° |
| 2026-05-03 22:44 | 51.13256 | -114.01722 | 3545 ft | 1 kts | 184° |
| 2026-05-03 22:44 | 51.13259 | -114.01722 | 3545 ft | 0 kts | 182° |
| 2026-05-03 22:48 | 51.13258 | -114.01722 | 3545 ft | 0 kts | 182° |
| 2026-05-03 22:49 | 51.13252 | -114.01722 | 3546 ft | 1 kts | 182° |
| 2026-05-03 22:49 | 51.13232 | -114.01723 | 3546 ft | 5 kts | 180° |
| 2026-05-03 22:49 | 51.13183 | -114.01723 | 3547 ft | 8 kts | 180° |
| 2026-05-03 22:49 | 51.13114 | -114.01746 | 3547 ft | 10 kts | 214° |
| 2026-05-03 22:50 | 51.13047 | -114.01798 | 3547 ft | 10 kts | 181° |
| 2026-05-03 22:50 | 51.12964 | -114.01795 | 3547 ft | 12 kts | 179° |
| 2026-05-03 22:50 | 51.12883 | -114.01793 | 3549 ft | 10 kts | 179° |
| 2026-05-03 22:50 | 51.12814 | -114.01795 | 3550 ft | 9 kts | 182° |
| 2026-05-03 22:51 | 51.12752 | -114.01798 | 3550 ft | 9 kts | 182° |
| 2026-05-03 22:51 | 51.12685 | -114.01801 | 3550 ft | 10 kts | 179° |
| 2026-05-03 22:51 | 51.12583 | -114.01798 | 3550 ft | 18 kts | 180° |
| 2026-05-03 22:51 | 51.12456 | -114.01798 | 3550 ft | 18 kts | 180° |
| 2026-05-03 22:52 | 51.12330 | -114.01792 | 3550 ft | 17 kts | 173° |
| 2026-05-03 22:52 | 51.12212 | -114.01793 | 3550 ft | 16 kts | 182° |
| 2026-05-03 22:52 | 51.12100 | -114.01795 | 3550 ft | 15 kts | 180° |
| 2026-05-03 22:52 | 51.11989 | -114.01795 | 3550 ft | 15 kts | 180° |
| 2026-05-03 22:53 | 51.11882 | -114.01798 | 3550 ft | 15 kts | 180° |
| 2026-05-03 22:53 | 51.11776 | -114.01798 | 3550 ft | 15 kts | 179° |
| 2026-05-03 22:53 | 51.11669 | -114.01794 | 3550 ft | 15 kts | 179° |
| 2026-05-03 22:53 | 51.11563 | -114.01791 | 3550 ft | 15 kts | 180° |
| 2026-05-03 22:54 | 51.11459 | -114.01794 | 3550 ft | 15 kts | 181° |
| 2026-05-03 22:54 | 51.11349 | -114.01798 | 3548 ft | 16 kts | 181° |
| 2026-05-03 22:54 | 51.11233 | -114.01798 | 3547 ft | 16 kts | 180° |
| 2026-05-03 22:54 | 51.11163 | -114.01884 | 3547 ft | 11 kts | 266° |
| 2026-05-03 22:55 | 51.11190 | -114.01966 | 3547 ft | 0 kts | 330° |
| 2026-05-03 22:55 | 51.11191 | -114.01968 | 3547 ft | 2 kts | 331° |
| 2026-05-03 22:56 | 51.11273 | -114.02035 | 3547 ft | 23 kts | 332° |
| 2026-05-03 22:56 | 51.11362 | -114.02131 | 3548 ft | 3 kts | 358° |
| 2026-05-03 22:57 | 51.11514 | -114.02137 | 3551 ft | 64 kts | 1° |
| 2026-05-03 22:57 | 51.12265 | -114.02138 | 3551 ft | 149 kts | 0° |
| 2026-05-03 22:57 | 51.13469 | -114.02160 | 4099 ft | 181 kts | 0° |
| 2026-05-03 22:57 | 51.14659 | -114.02234 | 5053 ft | 172 kts | 358° |
| 2026-05-03 22:58 | 51.15831 | -114.02364 | 5786 ft | 169 kts | 356° |
| 2026-05-03 22:58 | 51.17100 | -114.02455 | 6014 ft | 196 kts | 359° |
| 2026-05-03 22:58 | 51.18473 | -114.02466 | 6678 ft | 201 kts | 359° |
| 2026-05-03 22:58 | 51.19953 | -114.02497 | 7039 ft | 223 kts | 357° |
| 2026-05-03 22:59 | 51.21524 | -114.02583 | 7565 ft | 236 kts | 356° |
| 2026-05-03 22:59 | 51.23236 | -114.02672 | 8131 ft | 249 kts | 356° |
| 2026-05-03 22:59 | 51.24945 | -114.02755 | 8964 ft | 251 kts | 355° |
| 2026-05-03 22:59 | 51.26718 | -114.02842 | 9740 ft | 255 kts | 354° |
| 2026-05-03 23:00 | 51.28489 | -114.02928 | 10602 ft | 256 kts | 354° |
| 2026-05-03 23:00 | 51.30265 | -114.02904 | 11449 ft | 259 kts | 357° |
| 2026-05-03 23:00 | 51.32064 | -114.02754 | 12259 ft | 260 kts | 353° |
| 2026-05-03 23:00 | 51.33715 | -114.03499 | 13045 ft | 249 kts | 322° |
| 2026-05-03 23:01 | 51.34730 | -114.05637 | 13927 ft | 243 kts | 289° |
| 2026-05-03 23:01 | 51.34828 | -114.08352 | 14644 ft | 254 kts | 268° |
| 2026-05-03 23:01 | 51.34346 | -114.11172 | 15332 ft | 270 kts | 253° |
| 2026-05-03 23:01 | 51.33369 | -114.13779 | 15889 ft | 291 kts | 242° |
| 2026-05-03 23:02 | 51.32280 | -114.15970 | 16275 ft | 308 kts | 237° |
| 2026-05-03 23:02 | 51.30838 | -114.18604 | 16704 ft | 326 kts | 236° |
| 2026-05-03 23:02 | 51.29288 | -114.21375 | 17153 ft | 343 kts | 236° |
| 2026-05-03 23:02 | 51.27633 | -114.24332 | 17631 ft | 359 kts | 236° |
| 2026-05-03 23:03 | 51.25935 | -114.27367 | 18062 ft | 373 kts | 236° |
| 2026-05-03 23:03 | 51.24192 | -114.30467 | 18811 ft | 378 kts | 236° |
| 2026-05-03 23:03 | 51.22419 | -114.33613 | 19623 ft | 382 kts | 236° |
| 2026-05-03 23:03 | 51.20635 | -114.36779 | 20434 ft | 386 kts | 236° |
| 2026-05-03 23:04 | 51.18831 | -114.39983 | 21149 ft | 391 kts | 236° |
| 2026-05-03 23:04 | 51.16996 | -114.43239 | 21878 ft | 397 kts | 236° |
| 2026-05-03 23:04 | 51.15152 | -114.46506 | 22674 ft | 399 kts | 236° |
| 2026-05-03 23:04 | 51.13263 | -114.49853 | 23326 ft | 406 kts | 236° |
| 2026-05-03 23:05 | 51.11508 | -114.52953 | 24076 ft | 408 kts | 236° |
| 2026-05-03 23:05 | 51.09619 | -114.56409 | 24762 ft | 409 kts | 239° |
| 2026-05-03 23:05 | 51.07972 | -114.60088 | 25379 ft | 407 kts | 246° |
| 2026-05-03 23:05 | 51.06732 | -114.64109 | 25936 ft | 405 kts | 256° |
| 2026-05-03 23:06 | 51.05870 | -114.68358 | 26643 ft | 402 kts | 261° |
| 2026-05-03 23:06 | 51.05154 | -114.72665 | 27145 ft | 408 kts | 262° |
| 2026-05-03 23:06 | 51.04453 | -114.77131 | 27760 ft | 412 kts | 262° |
| 2026-05-03 23:06 | 51.03756 | -114.81564 | 28349 ft | 416 kts | 262° |
| 2026-05-03 23:07 | 51.03035 | -114.86082 | 28901 ft | 420 kts | 262° |
| 2026-05-03 23:07 | 51.02311 | -114.90585 | 29433 ft | 425 kts | 262° |
| 2026-05-03 23:07 | 51.01576 | -114.95121 | 30031 ft | 427 kts | 262° |
| 2026-05-03 23:07 | 51.00833 | -114.99687 | 30777 ft | 426 kts | 262° |
| 2026-05-03 23:08 | 51.00097 | -115.04182 | 31729 ft | 419 kts | 262° |
| 2026-05-03 23:08 | 50.99362 | -115.08656 | 32628 ft | 413 kts | 262° |
| 2026-05-03 23:08 | 50.98637 | -115.13104 | 33082 ft | 416 kts | 263° |
| 2026-05-03 23:08 | 50.97917 | -115.17546 | 33526 ft | 418 kts | 262° |
| 2026-05-03 23:09 | 50.97180 | -115.22018 | 33966 ft | 421 kts | 263° |
| 2026-05-03 23:09 | 50.95695 | -115.31008 | 34040 ft | 419 kts | 263° |
| 2026-05-03 23:10 | 50.94220 | -115.39831 | 34040 ft | 407 kts | 263° |
| 2026-05-03 23:10 | 50.92762 | -115.48620 | 34038 ft | 416 kts | 263° |
| 2026-05-03 23:11 | 50.91285 | -115.57433 | 34040 ft | 412 kts | 263° |
| 2026-05-03 23:11 | 50.89824 | -115.66232 | 34044 ft | 416 kts | 263° |
| 2026-05-03 23:12 | 50.88353 | -115.75247 | 34045 ft | 427 kts | 262° |
| 2026-05-03 23:12 | 50.86783 | -115.84495 | 34052 ft | 442 kts | 262° |
| 2026-05-03 23:13 | 50.85104 | -115.94135 | 34056 ft | 463 kts | 261° |
| 2026-05-03 23:13 | 50.83381 | -116.03981 | 34056 ft | 458 kts | 261° |
| 2026-05-03 23:13 | 50.82548 | -116.08698 | 34053 ft | 442 kts | 261° |
| 2026-05-03 23:14 | 50.81726 | -116.13350 | 34058 ft | 425 kts | 262° |
| 2026-05-03 23:14 | 50.80951 | -116.17754 | 34058 ft | 411 kts | 262° |
| 2026-05-03 23:14 | 50.80194 | -116.22086 | 34054 ft | 407 kts | 262° |
| 2026-05-03 23:15 | 50.78679 | -116.30832 | 34049 ft | 415 kts | 262° |
| 2026-05-03 23:15 | 50.77137 | -116.39654 | 34062 ft | 419 kts | 262° |
| 2026-05-03 23:16 | 50.75542 | -116.48523 | 34068 ft | 417 kts | 259° |
| 2026-05-03 23:16 | 50.73556 | -116.57201 | 34076 ft | 423 kts | 256° |
| 2026-05-03 23:17 | 50.71463 | -116.65855 | 34081 ft | 422 kts | 256° |
| 2026-05-03 23:17 | 50.69391 | -116.74535 | 34083 ft | 423 kts | 256° |
| 2026-05-03 23:18 | 50.67325 | -116.83222 | 34082 ft | 424 kts | 256° |
| 2026-05-03 23:18 | 50.65259 | -116.91894 | 34085 ft | 421 kts | 256° |
| 2026-05-03 23:19 | 50.63198 | -117.00542 | 34077 ft | 426 kts | 256° |
| 2026-05-03 23:19 | 50.61118 | -117.09221 | 34070 ft | 424 kts | 256° |
| 2026-05-03 23:20 | 50.59021 | -117.17936 | 34064 ft | 428 kts | 256° |
| 2026-05-03 23:20 | 50.56926 | -117.26615 | 34063 ft | 424 kts | 256° |
| 2026-05-03 23:21 | 50.54821 | -117.35319 | 34070 ft | 429 kts | 256° |
| 2026-05-03 23:21 | 50.52707 | -117.44015 | 34069 ft | 429 kts | 256° |
| 2026-05-03 23:22 | 50.49502 | -117.57124 | 33991 ft | 429 kts | 256° |
| 2026-05-03 23:22 | 50.48438 | -117.61449 | 33537 ft | 426 kts | 256° |
| 2026-05-03 23:22 | 50.47370 | -117.65790 | 32844 ft | 426 kts | 255° |
| 2026-05-03 23:23 | 50.46304 | -117.70122 | 32095 ft | 426 kts | 254° |
| 2026-05-03 23:23 | 50.45237 | -117.74449 | 31474 ft | 424 kts | 255° |
| 2026-05-03 23:23 | 50.44197 | -117.78709 | 30985 ft | 418 kts | 255° |
| 2026-05-03 23:23 | 50.43171 | -117.82917 | 30455 ft | 414 kts | 254° |
| 2026-05-03 23:24 | 50.42138 | -117.87060 | 29920 ft | 409 kts | 254° |
| 2026-05-03 23:24 | 50.41101 | -117.91200 | 29377 ft | 405 kts | 253° |
| 2026-05-03 23:24 | 50.40070 | -117.95309 | 28839 ft | 401 kts | 254° |
| 2026-05-03 23:24 | 50.39051 | -117.99374 | 28302 ft | 397 kts | 254° |
| 2026-05-03 23:25 | 50.38051 | -118.03359 | 27787 ft | 393 kts | 253° |
| 2026-05-03 23:25 | 50.37053 | -118.07336 | 27276 ft | 389 kts | 253° |
| 2026-05-03 23:25 | 50.36073 | -118.11236 | 26779 ft | 385 kts | 253° |
| 2026-05-03 23:25 | 50.35090 | -118.15145 | 26280 ft | 381 kts | 253° |
| 2026-05-03 23:26 | 50.34132 | -118.18959 | 25785 ft | 377 kts | 253° |
| 2026-05-03 23:26 | 50.33169 | -118.22780 | 25285 ft | 373 kts | 253° |
| 2026-05-03 23:26 | 50.32214 | -118.26554 | 24784 ft | 370 kts | 253° |
| 2026-05-03 23:26 | 50.31273 | -118.30273 | 24282 ft | 366 kts | 253° |
| 2026-05-03 23:27 | 50.30345 | -118.33934 | 23786 ft | 362 kts | 253° |
| 2026-05-03 23:27 | 50.29455 | -118.37617 | 23293 ft | 357 kts | 256° |
| 2026-05-03 23:27 | 50.28697 | -118.41326 | 22797 ft | 352 kts | 258° |
| 2026-05-03 23:27 | 50.27996 | -118.44933 | 22312 ft | 348 kts | 257° |
| 2026-05-03 23:28 | 50.27291 | -118.48547 | 21823 ft | 345 kts | 257° |
| 2026-05-03 23:28 | 50.26586 | -118.52116 | 21342 ft | 342 kts | 257° |
| 2026-05-03 23:28 | 50.25883 | -118.55648 | 20870 ft | 339 kts | 257° |
| 2026-05-03 23:28 | 50.25180 | -118.59163 | 20405 ft | 343 kts | 257° |
| 2026-05-03 23:29 | 50.24455 | -118.62804 | 19925 ft | 353 kts | 257° |
| 2026-05-03 23:29 | 50.23736 | -118.66504 | 19437 ft | 366 kts | 256° |
| 2026-05-03 23:29 | 50.22963 | -118.70407 | 18920 ft | 378 kts | 256° |
| 2026-05-03 23:29 | 50.22168 | -118.74355 | 18498 ft | 386 kts | 255° |
| 2026-05-03 23:30 | 50.21358 | -118.78330 | 18342 ft | 386 kts | 255° |
| 2026-05-03 23:30 | 50.20535 | -118.82360 | 18230 ft | 386 kts | 255° |
| 2026-05-03 23:30 | 50.19723 | -118.86324 | 18101 ft | 386 kts | 255° |
| 2026-05-03 23:30 | 50.18905 | -118.90317 | 17730 ft | 393 kts | 255° |
| 2026-05-03 23:31 | 50.18059 | -118.94440 | 17110 ft | 406 kts | 255° |
| 2026-05-03 23:31 | 50.17185 | -118.98693 | 16728 ft | 411 kts | 255° |
| 2026-05-03 23:31 | 50.16305 | -119.02959 | 16604 ft | 408 kts | 255° |
| 2026-05-03 23:31 | 50.15436 | -119.07147 | 16505 ft | 402 kts | 255° |
| 2026-05-03 23:32 | 50.14597 | -119.11161 | 16296 ft | 386 kts | 256° |
| 2026-05-03 23:32 | 50.13887 | -119.15177 | 15818 ft | 377 kts | 258° |
| 2026-05-03 23:32 | 50.13276 | -119.19065 | 15392 ft | 368 kts | 259° |
| 2026-05-03 23:32 | 50.12685 | -119.22886 | 14982 ft | 360 kts | 259° |
| 2026-05-03 23:33 | 50.12091 | -119.26661 | 14583 ft | 352 kts | 259° |
| 2026-05-03 23:33 | 50.11512 | -119.30306 | 14207 ft | 344 kts | 259° |
| 2026-05-03 23:33 | 50.10934 | -119.33908 | 13820 ft | 337 kts | 259° |
| 2026-05-03 23:33 | 50.10363 | -119.37441 | 13456 ft | 331 kts | 259° |
| 2026-05-03 23:34 | 50.09809 | -119.40859 | 13090 ft | 325 kts | 259° |
| 2026-05-03 23:34 | 50.09258 | -119.44246 | 12733 ft | 319 kts | 259° |
| 2026-05-03 23:34 | 50.08717 | -119.47561 | 12378 ft | 313 kts | 259° |
| 2026-05-03 23:34 | 50.08184 | -119.50822 | 12036 ft | 308 kts | 259° |
| 2026-05-03 23:35 | 50.07655 | -119.54054 | 11730 ft | 303 kts | 259° |
| 2026-05-03 23:35 | 50.07064 | -119.57182 | 11412 ft | 301 kts | 252° |
| 2026-05-03 23:35 | 50.06022 | -119.60010 | 11079 ft | 303 kts | 231° |
| 2026-05-03 23:35 | 50.04321 | -119.61942 | 10763 ft | 304 kts | 210° |
| 2026-05-03 23:36 | 50.02407 | -119.63309 | 10431 ft | 301 kts | 207° |
| 2026-05-03 23:36 | 50.00512 | -119.64620 | 10119 ft | 298 kts | 207° |
| 2026-05-03 23:36 | 49.98635 | -119.65973 | 9785 ft | 295 kts | 208° |
| 2026-05-03 23:36 | 49.96719 | -119.67123 | 9462 ft | 294 kts | 197° |
| 2026-05-03 23:37 | 49.94709 | -119.67408 | 9139 ft | 294 kts | 176° |
| 2026-05-03 23:37 | 49.92661 | -119.66908 | 8805 ft | 291 kts | 169° |
| 2026-05-03 23:37 | 49.90690 | -119.66333 | 8484 ft | 289 kts | 170° |
| 2026-05-03 23:37 | 49.88699 | -119.65792 | 8179 ft | 285 kts | 171° |
| 2026-05-03 23:38 | 49.86790 | -119.65299 | 7970 ft | 275 kts | 171° |
| 2026-05-03 23:38 | 49.84919 | -119.64825 | 7632 ft | 269 kts | 171° |
| 2026-05-03 23:38 | 49.83085 | -119.64361 | 7344 ft | 261 kts | 170° |
| 2026-05-03 23:38 | 49.81401 | -119.63577 | 7111 ft | 252 kts | 154° |
| 2026-05-03 23:39 | 49.80048 | -119.61969 | 6805 ft | 242 kts | 128° |
| 2026-05-03 23:39 | 49.79155 | -119.59834 | 6550 ft | 228 kts | 111° |
| 2026-05-03 23:39 | 49.78724 | -119.57580 | 6324 ft | 212 kts | 91° |
| 2026-05-03 23:39 | 49.78791 | -119.55399 | 6204 ft | 192 kts | 75° |
| 2026-05-03 23:40 | 49.79107 | -119.53467 | 5976 ft | 183 kts | 66° |
| 2026-05-03 23:40 | 49.79497 | -119.51625 | 5728 ft | 177 kts | 67° |
| 2026-05-03 23:40 | 49.79861 | -119.49840 | 5492 ft | 168 kts | 67° |
| 2026-05-03 23:40 | 49.80213 | -119.48177 | 5288 ft | 159 kts | 66° |
| 2026-05-03 23:41 | 49.80534 | -119.46576 | 5084 ft | 153 kts | 68° |
| 2026-05-03 23:41 | 49.80853 | -119.45029 | 4833 ft | 146 kts | 65° |
| 2026-05-03 23:41 | 49.81147 | -119.43581 | 4730 ft | 140 kts | 66° |
| 2026-05-03 23:41 | 49.81451 | -119.42106 | 4628 ft | 148 kts | 66° |
| 2026-05-03 23:42 | 49.81803 | -119.40612 | 4424 ft | 143 kts | 57° |
| 2026-05-03 23:42 | 49.82371 | -119.39391 | 4225 ft | 140 kts | 42° |
| 2026-05-03 23:42 | 49.83066 | -119.38357 | 4074 ft | 138 kts | 35° |
| 2026-05-03 23:42 | 49.83895 | -119.37624 | 3903 ft | 138 kts | 20° |
| 2026-05-03 23:43 | 49.84813 | -119.37131 | 3608 ft | 137 kts | 11° |
| 2026-05-03 23:43 | 49.85716 | -119.36916 | 3365 ft | 131 kts | 3° |
| 2026-05-03 23:43 | 49.86632 | -119.36829 | 3266 ft | 130 kts | 1° |
| 2026-05-03 23:43 | 49.87552 | -119.36803 | 3211 ft | 137 kts | 360° |
| 2026-05-03 23:44 | 49.88421 | -119.36821 | 2901 ft | 143 kts | 356° |
| 2026-05-03 23:44 | 49.89069 | -119.36883 | 2720 ft | 137 kts | 353° |
| 2026-05-03 23:44 | 49.89995 | -119.37014 | 2454 ft | 131 kts | 354° |
| 2026-05-03 23:44 | 49.90899 | -119.37138 | 2209 ft | 126 kts | 351° |
| 2026-05-03 23:45 | 49.91752 | -119.37247 | 2151 ft | 126 kts | 354° |
| 2026-05-03 23:45 | 49.92669 | -119.37367 | 1898 ft | 132 kts | 349° |
| 2026-05-03 23:45 | 49.93552 | -119.37498 | 1676 ft | 124 kts | 349° |
| 2026-05-03 23:45 | 49.94413 | -119.37623 | 1505 ft | 122 kts | 354° |
| 2026-05-03 23:46 | 49.95206 | -119.37726 | 1437 ft | 92 kts | 354° |
| 2026-05-03 23:46 | 49.95635 | -119.37782 | 1446 ft | 38 kts | 355° |
| 2026-05-03 23:46 | 49.95788 | -119.37843 | 1450 ft | 13 kts | 307° |
| 2026-05-03 23:46 | 49.95767 | -119.37934 | 1451 ft | 9 kts | 199° |
| 2026-05-03 23:47 | 49.95698 | -119.37930 | 1448 ft | 11 kts | 176° |
| 2026-05-03 23:47 | 49.95611 | -119.37920 | 1445 ft | 13 kts | 175° |
| 2026-05-03 23:47 | 49.95507 | -119.37910 | 1443 ft | 15 kts | 176° |
| 2026-05-03 23:47 | 49.95395 | -119.37891 | 1440 ft | 14 kts | 173° |
| 2026-05-03 23:48 | 49.95289 | -119.37874 | 1438 ft | 15 kts | 174° |
| 2026-05-03 23:48 | 49.95195 | -119.37864 | 1436 ft | 10 kts | 176° |
| 2026-05-03 23:48 | 49.95160 | -119.37921 | 1435 ft | 9 kts | 308° |
| 2026-05-03 23:48 | 49.95192 | -119.37982 | 1436 ft | 6 kts | 274° |
| 2026-05-03 23:49 | 49.95195 | -119.38024 | 1436 ft | 0 kts | 291° |